This is the latest recevied weather packets stored in our database for station/object KW4UJ. If no packets are shown the sender has not sent any weather packets the latest 10 day(s).
| Time | Temp. | Humidity | Pressure | Rain* | Wind** | Luminosity | Snow |
|---|---|---|---|---|---|---|---|
| 1788499816 | 21.11° C | 99% | 1013.3 hPa | 0 mm | - | 0 W/m² | - |
| 1788499512 | 21.11° C | 99% | 1013.7 hPa | 1.27 mm | - | 0 W/m² | - |
| 1788499208 | 21.11° C | 99% | 1013.6 hPa | 1.27 mm | - | 0 W/m² | - |
| 1788498905 | 21.11° C | 99% | 1013.9 hPa | 1.78 mm | - | 0 W/m² | - |
| 1788498603 | 21.11° C | 99% | 1014.2 hPa | 1.78 mm | - | 0 W/m² | - |
| 1788498306 | 21.11° C | 99% | 1014.5 hPa | 3.05 mm | - | 0 W/m² | - |
| 1788497995 | 21.11° C | 99% | 1014.4 hPa | 1.27 mm | - | 0 W/m² | - |
| 1788493677 | 22.78° C | 97% | 1017.1 hPa | 138.68 mm | - | 0 W/m² | - |
| 1788493373 | 22.78° C | 97% | 1017.1 hPa | 138.68 mm | - | 0 W/m² | - |
| 1788493073 | 22.78° C | 97% | 1017.8 hPa | 112.78 mm | - | 0 W/m² | - |
| 1788492766 | 25° C | 96% | 1017.3 hPa | 36.58 mm | - | 0 W/m² | - |
| 1788492461 | 23.89° C | 96% | 1014.8 hPa | 0 mm | - | 0 W/m² | - |
| 1788492160 | 23.89° C | 95% | 1014.2 hPa | 0 mm | - | 0 W/m² | - |
| 1788491855 | 23.33° C | 94% | 1013.9 hPa | 1.78 mm | - | 0 W/m² | - |
| 1788491551 | 23.33° C | 92% | 1013.8 hPa | 3.05 mm | - | 0 W/m² | - |
| 1788491246 | 23.89° C | 90% | 1013.5 hPa | 3.05 mm | - | 0 W/m² | - |
| 1788490941 | 23.89° C | 89% | 1013.6 hPa | 13.72 mm | - | 0 W/m² | - |
| 1788490638 | 25.56° C | 89% | 1013.6 hPa | 15.49 mm | - | 0 W/m² | - |
| 1788490333 | 27.78° C | 90% | 1014 hPa | 4.83 mm | - | 0 W/m² | - |
| 1788490028 | 27.78° C | 87% | 1014 hPa | 0 mm | - | 0 W/m² | - |
| 1788489723 | 27.78° C | 87% | 1014 hPa | 0 mm | - | 0 W/m² | - |
| 1788489420 | 27.78° C | 86% | 1014.1 hPa | 0 mm | - | 0 W/m² | - |
| 1788489115 | 27.78° C | 87% | 1014.1 hPa | 0 mm | - | 0 W/m² | - |
| 1788488815 | 27.78° C | 87% | 1014.3 hPa | 0 mm | - | 0 W/m² | - |
| 1788488512 | 27.78° C | 87% | 1014.3 hPa | 0 mm | - | 0 W/m² | - |
* Rain latest hour (hover to see other rain measurements)
** Current wind speed in m/s (hover to see current wind gust speed)